Time;durP1;ratioP1;P1;durP2;ratioP2;P2;SDS_P1;SDS_P2;PMS_P1;PMS_P2;Temp;Humidity;BMP_temperature;BMP_pressure;BME280_temperature;BME280_humidity;BME280_pressure;Samples;Min_cycle;Max_cycle;Signal;HPM_P1;HPM_P2
2023/10/30 00:00:52;;;;;;;0.00;0.00;;;14.70;71.50;;;;;;5006728;28;20686;-33
2023/10/30 00:03:19;;;;;;;0.00;0.00;;;14.70;71.50;;;;;;5007530;28;20241;-33
2023/10/30 00:05:47;;;;;;;0.00;0.00;;;14.70;71.50;;;;;;5008178;28;20760;-33
2023/10/30 00:08:16;;;;;;;0.00;0.00;;;14.60;71.40;;;;;;5006449;28;20292;-33
2023/10/30 00:10:44;;;;;;;0.00;0.00;;;14.70;71.50;;;;;;5022875;28;20308;-33
2023/10/30 00:13:11;;;;;;;0.00;0.00;;;14.70;71.50;;;;;;5023043;28;20202;-33
2023/10/30 00:15:38;;;;;;;0.00;0.00;;;14.70;71.50;;;;;;5006175;28;20202;-33
2023/10/30 00:18:07;;;;;;;0.00;0.00;;;14.70;71.50;;;;;;5005946;28;20210;-33
2023/10/30 00:20:37;;;;;;;0.00;0.00;;;14.70;71.50;;;;;;5021039;28;20201;-33
2023/10/30 00:23:04;;;;;;;0.00;0.00;;;14.70;71.50;;;;;;5006661;28;20299;-33
2023/10/30 00:25:32;;;;;;;0.00;0.00;;;14.70;71.50;;;;;;5020814;28;20233;-33
2023/10/30 00:28:02;;;;;;;0.00;0.00;;;14.70;71.50;;;;;;5006645;28;20321;-33
2023/10/30 00:30:29;;;;;;;0.00;0.00;;;14.70;71.50;;;;;;5020657;28;20744;-33
2023/10/30 00:32:59;;;;;;;0.00;0.00;;;14.70;71.60;;;;;;5020604;28;20201;-33
2023/10/30 00:35:26;;;;;;;0.00;0.00;;;14.70;71.50;;;;;;5021077;28;20662;-33
2023/10/30 00:37:55;;;;;;;0.00;0.00;;;14.70;71.50;;;;;;5021045;28;20210;-33
2023/10/30 00:40:24;;;;;;;0.00;0.00;;;14.70;71.50;;;;;;5004732;28;20585;-33
2023/10/30 00:42:51;;;;;;;0.00;0.00;;;14.70;71.50;;;;;;5020721;28;20679;-33
2023/10/30 00:45:23;;;;;;;0.00;0.00;;;14.70;71.50;;;;;;5006586;28;20227;-33
2023/10/30 00:47:50;;;;;;;0.00;0.00;;;14.70;71.50;;;;;;5009904;28;20675;-33
2023/10/30 00:50:20;;;;;;;0.00;0.00;;;14.70;71.40;;;;;;5010592;28;20200;-33
2023/10/30 00:52:52;;;;;;;0.00;0.00;;;14.70;71.50;;;;;;5010572;28;20284;-33
2023/10/30 00:55:21;;;;;;;0.00;0.00;;;14.70;71.50;;;;;;5030774;28;20307;-33
2023/10/30 00:57:48;;;;;;;0.00;0.00;;;14.70;71.40;;;;;;5030203;28;20231;-33
2023/10/30 01:00:16;;;;;;;0.00;0.00;;;14.70;71.40;;;;;;5029760;28;20215;-33
2023/10/30 01:02:44;;;;;;;0.00;0.00;;;14.70;71.50;;;;;;5029372;28;20241;-33
2023/10/30 01:05:12;;;;;;;0.00;0.00;;;14.70;71.50;;;;;;5028476;28;20311;-33
2023/10/30 01:07:42;;;;;;;0.00;0.00;;;14.70;71.50;;;;;;5028198;28;20197;-33
2023/10/30 01:10:09;;;;;;;0.00;0.00;;;14.70;71.50;;;;;;5029306;28;20228;-33
2023/10/30 01:12:39;;;;;;;0.00;0.00;;;14.70;71.40;;;;;;5029396;28;20221;-33
2023/10/30 01:15:06;;;;;;;0.00;0.00;;;14.70;71.40;;;;;;5029157;28;20228;-33
2023/10/30 01:17:34;;;;;;;0.00;0.00;;;14.70;71.40;;;;;;5027777;28;20856;-33
2023/10/30 01:20:03;;;;;;;0.00;0.00;;;14.70;71.50;;;;;;5029142;28;20254;-33
2023/10/30 01:22:35;;;;;;;0.00;0.00;;;14.70;71.40;;;;;;5029377;28;20229;-33
2023/10/30 01:25:03;;;;;;;0.00;0.00;;;14.70;71.50;;;;;;5029093;28;20271;-32
2023/10/30 01:27:30;;;;;;;0.00;0.00;;;14.70;71.50;;;;;;5027742;28;20292;-33
2023/10/30 01:29:57;;;;;;;0.00;0.00;;;14.70;71.50;;;;;;5027193;28;20193;-33
2023/10/30 01:32:24;;;;;;;0.00;0.00;;;14.70;71.50;;;;;;5043721;28;20215;-33
2023/10/30 01:34:54;;;;;;;0.00;0.00;;;14.70;71.50;;;;;;5010927;28;20231;-33
2023/10/30 01:37:26;;;;;;;0.00;0.00;;;14.70;71.50;;;;;;5028825;28;20205;-33
2023/10/30 01:39:56;;;;;;;0.00;0.00;;;14.70;71.50;;;;;;5027521;28;20197;-33
2023/10/30 01:42:27;;;;;;;0.00;0.00;;;14.80;71.60;;;;;;5043578;28;20706;-32
2023/10/30 01:44:56;;;;;;;0.00;0.00;;;14.80;71.50;;;;;;5028545;28;20220;-33
2023/10/30 01:47:26;;;;;;;0.00;0.00;;;14.80;71.50;;;;;;5022036;28;20201;-33
2023/10/30 01:49:59;;;;;;;0.00;0.00;;;14.70;71.50;;;;;;5030149;28;20205;-33
2023/10/30 01:52:31;;;;;;;0.00;0.00;;;14.80;71.50;;;;;;5030202;28;20295;-33
2023/10/30 01:55:00;;;;;;;0.00;0.00;;;14.80;71.60;;;;;;5030423;28;20200;-33
2023/10/30 01:57:32;;;;;;;0.00;0.00;;;14.80;71.50;;;;;;5030343;28;20223;-33
2023/10/30 02:00:00;;;;;;;0.00;0.00;;;14.80;71.50;;;;;;5025479;28;20584;-33
2023/10/30 02:02:33;;;;;;;0.00;0.00;;;14.80;71.60;;;;;;5026331;28;20331;-33
2023/10/30 02:05:04;;;;;;;0.00;0.00;;;14.80;71.50;;;;;;5026636;28;20241;-32
2023/10/30 02:07:34;;;;;;;0.00;0.00;;;14.80;71.60;;;;;;5016052;28;20214;-32
2023/10/30 02:10:06;;;;;;;0.00;0.00;;;14.80;71.50;;;;;;5025729;28;20207;-33
2023/10/30 02:12:35;;;;;;;0.00;0.00;;;14.80;71.50;;;;;;5027912;28;20235;-32
2023/10/30 02:15:08;;;;;;;0.00;0.00;;;14.80;71.50;;;;;;5021924;28;20715;-33
2023/10/30 02:17:38;;;;;;;0.00;0.00;;;14.80;71.50;;;;;;5017510;28;20228;-33
2023/10/30 02:20:10;;;;;;;0.00;0.00;;;14.80;71.60;;;;;;5026757;28;20925;-33
2023/10/30 02:22:38;;;;;;;0.00;0.00;;;14.80;71.60;;;;;;5026503;28;20590;-33
2023/10/30 02:25:08;;;;;;;0.00;0.00;;;14.80;71.50;;;;;;5027570;28;20782;-33
2023/10/30 02:27:37;;;;;;;0.00;0.00;;;14.80;71.50;;;;;;5027944;28;20201;-33
2023/10/30 02:30:11;;;;;;;0.00;0.00;;;14.80;71.50;;;;;;5026233;28;20679;-33
2023/10/30 02:32:44;;;;;;;0.00;0.00;;;14.80;71.60;;;;;;5042453;28;20215;-33
2023/10/30 02:35:16;;;;;;;0.00;0.00;;;14.90;71.60;;;;;;5027713;28;20215;-33
2023/10/30 02:37:47;;;;;;;0.00;0.00;;;14.90;71.70;;;;;;5028320;28;20211;-33
2023/10/30 02:40:14;;;;;;;0.00;0.00;;;14.80;71.50;;;;;;5026432;28;20750;-33
2023/10/30 02:42:42;;;;;;;0.00;0.00;;;14.90;71.60;;;;;;5023313;28;20240;-33
2023/10/30 02:45:09;;;;;;;0.00;0.00;;;14.80;71.50;;;;;;5012737;28;20280;-34
2023/10/30 02:47:39;;;;;;;0.00;0.00;;;14.80;71.50;;;;;;5009148;28;20206;-33
2023/10/30 02:50:07;;;;;;;0.00;0.00;;;14.80;71.50;;;;;;5009338;28;20299;-33
2023/10/30 02:52:36;;;;;;;0.00;0.00;;;14.80;71.50;;;;;;5010168;28;20623;-33
2023/10/30 02:55:09;;;;;;;0.00;0.00;;;14.80;71.50;;;;;;5022546;28;20198;-33
2023/10/30 02:57:40;;;;;;;0.00;0.00;;;14.80;71.50;;;;;;5022534;28;20225;-33
2023/10/30 03:00:09;;;;;;;0.00;0.00;;;14.80;71.50;;;;;;5007210;28;20216;-33
2023/10/30 03:02:39;;;;;;;0.00;0.00;;;14.80;71.50;;;;;;5021889;28;20520;-33
2023/10/30 03:05:09;;;;;;;0.00;0.00;;;14.80;71.50;;;;;;5007349;28;20221;-33
2023/10/30 03:07:41;;;;;;;0.00;0.00;;;14.80;71.50;;;;;;5005480;28;20201;-33
2023/10/30 03:10:10;;;;;;;0.00;0.00;;;14.80;71.60;;;;;;5007410;28;20233;-33
2023/10/30 03:12:40;;;;;;;0.00;0.00;;;14.80;71.50;;;;;;5022149;28;20200;-33
2023/10/30 03:15:08;;;;;;;0.00;0.00;;;14.80;71.60;;;;;;5006802;28;20219;-33
2023/10/30 03:17:38;;;;;;;0.00;0.00;;;14.80;71.60;;;;;;5022103;28;20205;-33
2023/10/30 03:20:08;;;;;;;0.00;0.00;;;14.80;71.50;;;;;;5022070;28;20631;-33
2023/10/30 03:22:35;;;;;;;0.00;0.00;;;14.80;71.50;;;;;;5007187;28;20537;-32
2023/10/30 03:25:05;;;;;;;0.00;0.00;;;14.80;71.50;;;;;;5021744;28;20229;-32
2023/10/30 03:27:35;;;;;;;0.00;0.00;;;14.80;71.50;;;;;;5006788;28;20200;-33
2023/10/30 03:30:03;;;;;;;0.00;0.00;;;14.80;71.60;;;;;;5006520;28;20220;-33
2023/10/30 03:32:30;;;;;;;0.00;0.00;;;14.80;71.50;;;;;;5006658;28;20207;-33
2023/10/30 03:35:01;;;;;;;0.00;0.00;;;14.80;71.50;;;;;;5021861;28;20326;-33
2023/10/30 03:37:30;;;;;;;0.00;0.00;;;14.80;71.50;;;;;;5008867;28;20233;-33
2023/10/30 03:40:00;;;;;;;0.00;0.00;;;14.80;71.50;;;;;;5007156;28;20658;-33
2023/10/30 03:42:27;;;;;;;0.00;0.00;;;14.80;71.50;;;;;;5008344;28;20762;-33
2023/10/30 03:44:57;;;;;;;0.00;0.00;;;14.80;71.60;;;;;;5022680;28;20668;-32
2023/10/30 03:47:24;;;;;;;0.00;0.00;;;14.80;71.60;;;;;;5005581;28;20201;-33
2023/10/30 03:49:54;;;;;;;0.00;0.00;;;14.80;71.60;;;;;;5006646;28;20618;-33
2023/10/30 03:52:23;;;;;;;0.00;0.00;;;14.70;71.50;;;;;;5021090;28;20213;-33
2023/10/30 03:54:52;;;;;;;0.00;0.00;;;14.70;71.50;;;;;;5021335;28;20212;-32
2023/10/30 03:57:22;;;;;;;0.00;0.00;;;14.70;71.50;;;;;;5006741;28;20212;-33
2023/10/30 03:59:51;;;;;;;0.00;0.00;;;14.70;71.50;;;;;;5020941;28;20256;-32
2023/10/30 04:02:23;;;;;;;0.00;0.00;;;14.70;71.50;;;;;;5021673;28;20610;-33
2023/10/30 04:04:54;;;;;;;0.00;0.00;;;14.70;71.50;;;;;;5026213;28;20251;-33
2023/10/30 04:07:24;;;;;;;0.00;0.00;;;14.70;71.50;;;;;;5026191;28;20279;-33
2023/10/30 04:09:51;;;;;;;0.00;0.00;;;14.70;71.50;;;;;;5024754;28;20216;-32
2023/10/30 04:12:21;;;;;;;0.00;0.00;;;14.70;71.50;;;;;;5024780;28;20197;-33
2023/10/30 04:14:51;;;;;;;0.00;0.00;;;14.70;71.50;;;;;;5025894;28;20197;-32
2023/10/30 04:17:18;;;;;;;0.00;0.00;;;14.60;71.50;;;;;;5025476;28;20636;-32
2023/10/30 04:19:46;;;;;;;0.00;0.00;;;14.70;71.60;;;;;;5023500;28;20292;-33
2023/10/30 04:22:18;;;;;;;0.00;0.00;;;14.60;71.60;;;;;;5008283;28;20751;-32
2023/10/30 04:24:45;;;;;;;0.00;0.00;;;14.60;71.50;;;;;;5026058;28;20223;-32
2023/10/30 04:27:15;;;;;;;0.00;0.00;;;14.60;71.50;;;;;;5025969;28;20197;-33
2023/10/30 04:29:42;;;;;;;0.00;0.00;;;14.60;71.50;;;;;;5021288;28;20823;-33
2023/10/30 04:32:14;;;;;;;0.00;0.00;;;14.60;71.50;;;;;;5021141;28;20204;-33
2023/10/30 04:34:42;;;;;;;0.00;0.00;;;14.60;71.60;;;;;;5025926;28;20201;-33
2023/10/30 04:37:19;;;;;;;0.00;0.00;;;14.60;71.50;;;;;;5025891;28;20251;-33
2023/10/30 04:39:46;;;;;;;0.00;0.00;;;14.50;71.50;;;;;;5027470;28;20690;-33
2023/10/30 04:42:14;;;;;;;0.00;0.00;;;14.50;71.50;;;;;;5027718;28;20220;-33
2023/10/30 04:44:43;;;;;;;0.00;0.00;;;14.60;71.60;;;;;;5025036;28;20224;-33
2023/10/30 04:47:10;;;;;;;0.00;0.00;;;14.50;71.50;;;;;;5023582;28;20200;-33
2023/10/30 04:49:38;;;;;;;0.00;0.00;;;14.50;71.50;;;;;;5025557;28;20196;-33
2023/10/30 04:52:10;;;;;;;0.00;0.00;;;14.50;71.50;;;;;;5024217;28;20221;-33
2023/10/30 04:54:40;;;;;;;0.00;0.00;;;14.50;71.50;;;;;;5025446;28;20247;-33
2023/10/30 04:57:12;;;;;;;0.00;0.00;;;14.50;71.60;;;;;;5025486;28;20251;-33
2023/10/30 04:59:42;;;;;;;0.00;0.00;;;14.40;71.50;;;;;;5023569;28;20209;-32
2023/10/30 05:02:09;;;;;;;0.00;0.00;;;14.50;71.60;;;;;;5023466;28;20232;-33
2023/10/30 05:04:39;;;;;;;0.00;0.00;;;14.40;71.50;;;;;;5025669;28;20224;-33
2023/10/30 05:07:06;;;;;;;0.00;0.00;;;14.40;71.50;;;;;;5023975;28;20196;-33
2023/10/30 05:09:36;;;;;;;0.00;0.00;;;14.40;71.50;;;;;;5025060;28;20244;-33
2023/10/30 05:12:03;;;;;;;0.00;0.00;;;14.40;71.50;;;;;;5025599;28;20209;-33
2023/10/30 05:14:33;;;;;;;0.00;0.00;;;14.30;71.40;;;;;;5039870;28;20247;-33
2023/10/30 05:17:00;;;;;;;0.00;0.00;;;14.40;71.50;;;;;;5024914;28;20227;-33
2023/10/30 05:19:27;;;;;;;0.00;0.00;;;14.30;71.50;;;;;;5025589;28;20226;-33
2023/10/30 05:21:57;;;;;;;0.00;0.00;;;14.30;71.50;;;;;;5023695;28;20201;-33
2023/10/30 05:24:28;;;;;;;0.00;0.00;;;14.30;71.50;;;;;;5019346;28;20205;-33
2023/10/30 05:26:56;;;;;;;0.00;0.00;;;14.30;71.50;;;;;;5007059;28;20283;-32
2023/10/30 05:29:25;;;;;;;0.00;0.00;;;14.20;71.50;;;;;;5005399;28;20220;-32
2023/10/30 05:31:53;;;;;;;0.00;0.00;;;14.20;71.50;;;;;;5008850;28;20559;-32
2023/10/30 05:34:20;;;;;;;0.00;0.00;;;14.20;71.50;;;;;;5021262;28;20212;-32
2023/10/30 05:36:49;;;;;;;0.00;0.00;;;14.20;71.50;;;;;;5027941;28;20746;-32
2023/10/30 05:39:18;;;;;;;0.00;0.00;;;14.20;71.50;;;;;;5027263;28;20209;-32
2023/10/30 05:41:48;;;;;;;0.00;0.00;;;14.10;71.50;;;;;;5028986;28;20612;-32
2023/10/30 05:44:15;;;;;;;0.00;0.00;;;14.10;71.50;;;;;;5027938;28;20488;-32
2023/10/30 05:46:47;;;;;;;0.00;0.00;;;14.10;71.60;;;;;;5026756;28;20231;-32
2023/10/30 05:49:16;;;;;;;0.00;0.00;;;14.10;71.50;;;;;;5026714;28;20228;-32
2023/10/30 05:51:48;;;;;;;0.00;0.00;;;14.10;71.50;;;;;;5027010;28;20204;-32
2023/10/30 05:54:15;;;;;;;0.00;0.00;;;14.10;71.50;;;;;;5028444;28;20217;-32
2023/10/30 05:56:45;;;;;;;0.00;0.00;;;14.00;71.50;;;;;;5010252;28;20204;-32
2023/10/30 05:59:12;;;;;;;0.00;0.00;;;14.00;71.50;;;;;;5037195;28;20224;-32
2023/10/30 06:01:42;;;;;;;0.00;0.00;;;14.00;71.50;;;;;;5025942;28;20316;-32
2023/10/30 06:04:09;;;;;;;0.00;0.00;;;14.00;71.50;;;;;;5031149;28;20213;-32
2023/10/30 06:06:36;;;;;;;0.00;0.00;;;14.00;71.50;;;;;;5032840;28;20232;-32
2023/10/30 06:09:06;;;;;;;0.00;0.00;;;14.00;71.50;;;;;;5021931;28;20220;-32
2023/10/30 06:11:36;;;;;;;0.00;0.00;;;13.90;71.50;;;;;;5019049;28;20258;-32
2023/10/30 06:14:05;;;;;;;0.00;0.00;;;13.90;71.40;;;;;;5023112;28;20196;-32
2023/10/30 06:16:35;;;;;;;0.00;0.00;;;13.90;71.50;;;;;;5023874;28;20644;-32
2023/10/30 06:19:05;;;;;;;0.00;0.00;;;13.90;71.50;;;;;;5019031;28;20303;-32
2023/10/30 06:21:38;;;;;;;0.00;0.00;;;13.80;71.40;;;;;;5028790;28;20378;-32
2023/10/30 06:24:11;;;;;;;0.00;0.00;;;13.80;71.40;;;;;;5029469;28;20725;-32
2023/10/30 06:26:41;;;;;;;0.00;0.00;;;13.80;71.40;;;;;;5015804;28;20229;-32
2023/10/30 06:29:09;;;;;;;0.00;0.00;;;13.80;71.40;;;;;;5029425;28;20312;-32
2023/10/30 06:31:36;;;;;;;0.00;0.00;;;13.80;71.50;;;;;;5020029;28;20233;-32
2023/10/30 06:34:03;;;;;;;0.00;0.00;;;13.70;71.40;;;;;;5008223;28;20589;-32
2023/10/30 06:36:35;;;;;;;0.00;0.00;;;13.70;71.50;;;;;;5024974;28;20205;-32
2023/10/30 06:39:04;;;;;;;0.00;0.00;;;13.70;71.50;;;;;;5025915;28;20672;-32
2023/10/30 06:41:31;;;;;;;0.00;0.00;;;13.70;71.60;;;;;;5027078;28;20300;-32
2023/10/30 06:44:00;;;;;;;0.00;0.00;;;13.70;71.60;;;;;;5027169;28;20296;-32
2023/10/30 06:46:27;;;;;;;0.00;0.00;;;13.70;71.60;;;;;;5026923;28;20301;-32
2023/10/30 06:48:57;;;;;;;0.00;0.00;;;13.70;71.60;;;;;;5025990;28;20201;-32
2023/10/30 06:51:27;;;;;;;0.00;0.00;;;13.70;71.60;;;;;;5025707;28;20256;-32
2023/10/30 06:53:56;;;;;;;0.00;0.00;;;13.60;71.50;;;;;;5021846;28;20950;-33
2023/10/30 06:56:26;;;;;;;0.00;0.00;;;13.60;71.60;;;;;;5031617;28;20745;-32
2023/10/30 06:58:53;;;;;;;0.00;0.00;;;13.60;71.60;;;;;;5039938;28;20669;-32
2023/10/30 07:01:20;;;;;;;0.00;0.00;;;13.60;71.60;;;;;;5032802;28;20306;-33
2023/10/30 07:03:52;;;;;;;0.00;0.00;;;13.60;71.60;;;;;;5020461;28;20254;-33
2023/10/30 07:06:19;;;;;;;0.00;0.00;;;13.60;71.60;;;;;;5026397;28;20235;-33
2023/10/30 07:08:49;;;;;;;0.00;0.00;;;13.60;71.60;;;;;;5030458;28;20200;-32
2023/10/30 07:11:19;;;;;;;0.00;0.00;;;13.60;71.70;;;;;;5042285;28;20200;-32
2023/10/30 07:13:48;;;;;;;0.00;0.00;;;13.60;71.70;;;;;;5016121;28;20320;-32
2023/10/30 07:16:20;;;;;;;0.00;0.00;;;13.50;71.60;;;;;;5021430;28;20213;-33
2023/10/30 07:18:49;;;;;;;0.00;0.00;;;13.50;71.70;;;;;;5026440;28;20221;-33
2023/10/30 07:21:21;;;;;;;0.00;0.00;;;13.50;71.70;;;;;;5009516;28;20201;-33
2023/10/30 07:23:53;;;;;;;0.00;0.00;;;13.50;71.80;;;;;;5012994;28;20248;-33
2023/10/30 07:26:21;;;;;;;0.00;0.00;;;13.50;71.80;;;;;;5028019;28;20229;-33
2023/10/30 07:28:55;;;;;;;0.00;0.00;;;13.60;71.90;;;;;;5026209;28;20205;-33
2023/10/30 07:31:24;;;;;;;0.00;0.00;;;13.60;71.90;;;;;;5028947;28;20545;-34
2023/10/30 07:33:52;;;;;;;0.00;0.00;;;13.60;71.90;;;;;;5021160;28;20206;-33
2023/10/30 07:36:20;;;;;;;0.00;0.00;;;13.60;71.90;;;;;;5043425;28;20247;-33
2023/10/30 07:38:48;;;;;;;0.00;0.00;;;13.60;72.00;;;;;;5022790;28;20208;-33
2023/10/30 07:41:15;;;;;;;0.00;0.00;;;13.60;72.00;;;;;;5041201;28;20216;-33
2023/10/30 07:43:45;;;;;;;0.00;0.00;;;13.60;72.10;;;;;;5029443;28;20328;-33
2023/10/30 07:46:15;;;;;;;0.00;0.00;;;13.60;72.10;;;;;;5013231;28;20762;-33
2023/10/30 07:48:42;;;;;;;0.00;0.00;;;13.70;72.20;;;;;;5023427;28;20678;-33
2023/10/30 07:51:09;;;;;;;0.00;0.00;;;13.70;72.20;;;;;;5026650;28;20213;-33
2023/10/30 07:53:37;;;;;;;0.00;0.00;;;13.70;72.20;;;;;;5024484;28;20211;-33
2023/10/30 07:56:10;;;;;;;0.00;0.00;;;13.80;72.30;;;;;;5024668;28;20643;-34
2023/10/30 07:58:42;;;;;;;0.00;0.00;;;13.80;72.40;;;;;;5028964;28;20248;-34
2023/10/30 08:01:10;;;;;;;0.00;0.00;;;13.80;72.40;;;;;;5034841;28;20208;-34
2023/10/30 08:03:40;;;;;;;0.00;0.00;;;13.90;72.50;;;;;;5022942;28;20350;-34
2023/10/30 08:06:09;;;;;;;0.00;0.00;;;13.90;73.20;;;;;;5038173;28;20216;-34
2023/10/30 08:08:39;;;;;;;0.00;0.00;;;14.00;72.50;;;;;;5028719;28;20259;-34
2023/10/30 08:11:12;;;;;;;0.00;0.00;;;14.00;72.60;;;;;;5024165;28;20213;-34
2023/10/30 08:13:42;;;;;;;0.00;0.00;;;14.00;72.60;;;;;;5026396;28;20228;-34
2023/10/30 08:16:11;;;;;;;0.00;0.00;;;14.10;72.60;;;;;;5025191;28;20551;-33
2023/10/30 08:18:39;;;;;;;0.00;0.00;;;14.10;72.60;;;;;;5032451;28;21083;-34
2023/10/30 08:21:08;;;;;;;0.00;0.00;;;14.20;72.70;;;;;;5024369;28;20216;-34
2023/10/30 08:23:37;;;;;;;0.00;0.00;;;14.20;72.70;;;;;;5025750;28;20208;-34
2023/10/30 08:26:06;;;;;;;0.00;0.00;;;14.30;72.70;;;;;;5007046;28;20240;-34
2023/10/30 08:28:34;;;;;;;0.00;0.00;;;14.30;72.80;;;;;;5040405;28;20216;-34
2023/10/30 08:31:01;;;;;;;0.00;0.00;;;14.30;72.80;;;;;;5026067;28;20312;-34
2023/10/30 08:33:29;;;;;;;0.00;0.00;;;14.40;72.80;;;;;;5024242;28;20676;-34
2023/10/30 08:36:00;;;;;;;0.00;0.00;;;14.40;72.80;;;;;;5022129;28;20564;-34
2023/10/30 08:38:27;;;;;;;0.00;0.00;;;14.50;72.90;;;;;;5023978;28;20218;-34
2023/10/30 08:40:55;;;;;;;0.00;0.00;;;14.50;72.80;;;;;;5024421;28;20201;-34
2023/10/30 08:43:22;;;;;;;0.00;0.00;;;14.60;72.90;;;;;;5019496;28;20212;-34
2023/10/30 08:45:51;;;;;;;0.00;0.00;;;14.60;72.80;;;;;;5025186;28;20705;-34
2023/10/30 08:48:23;;;;;;;0.00;0.00;;;14.70;72.90;;;;;;5024366;28;20271;-34
2023/10/30 08:50:50;;;;;;;0.00;0.00;;;14.70;72.90;;;;;;5025518;28;20220;-34
2023/10/30 08:53:18;;;;;;;0.00;0.00;;;14.80;73.00;;;;;;5022129;28;20228;-34
2023/10/30 08:55:48;;;;;;;0.00;0.00;;;14.80;73.00;;;;;;5026312;28;20243;-34
2023/10/30 08:58:22;;;;;;;0.00;0.00;;;14.80;73.00;;;;;;5020657;28;20594;-34
2023/10/30 09:00:53;;;;;;;0.00;0.00;;;14.90;73.00;;;;;;5032239;28;20205;-34
2023/10/30 09:03:25;;;;;;;0.00;0.00;;;14.90;73.00;;;;;;5017236;28;20233;-34
2023/10/30 09:05:57;;;;;;;0.00;0.00;;;14.90;73.00;;;;;;4996634;28;20698;-34
2023/10/30 09:08:27;;;;;;;0.00;0.00;;;15.00;73.10;;;;;;5035438;28;20627;-34
2023/10/30 09:10:56;;;;;;;0.00;0.00;;;15.00;73.00;;;;;;5014232;28;20211;-34
2023/10/30 09:13:26;;;;;;;0.00;0.00;;;15.00;73.00;;;;;;5040958;28;20307;-34
2023/10/30 09:15:53;;;;;;;0.00;0.00;;;15.10;73.00;;;;;;5028031;28;20237;-34
2023/10/30 09:18:25;;;;;;;0.00;0.00;;;15.10;73.10;;;;;;5025450;28;20298;-34
2023/10/30 09:20:59;;;;;;;0.00;0.00;;;15.10;73.00;;;;;;5038173;28;20611;-34
2023/10/30 09:23:29;;;;;;;0.00;0.00;;;15.20;73.10;;;;;;5009047;28;20747;-34
2023/10/30 09:25:56;;;;;;;0.00;0.00;;;15.20;73.10;;;;;;5018010;28;20236;-34
2023/10/30 09:28:25;;;;;;;0.00;0.00;;;15.30;73.20;;;;;;5023979;28;20211;-34
2023/10/30 09:30:53;;;;;;;0.00;0.00;;;15.20;73.10;;;;;;5027294;28;20209;-34
2023/10/30 09:33:20;;;;;;;0.00;0.00;;;15.30;73.20;;;;;;5020404;28;20676;-34
2023/10/30 09:35:47;;;;;;;0.00;0.00;;;15.30;73.30;;;;;;5019132;28;20209;-34
2023/10/30 09:38:19;;;;;;;0.00;0.00;;;15.40;73.30;;;;;;5026390;28;20205;-34
2023/10/30 09:40:59;;;;;;;0.00;0.00;;;15.40;73.30;;;;;;5034165;28;20209;-34
2023/10/30 09:43:28;;;;;;;0.00;0.00;;;15.40;73.40;;;;;;5021580;28;20292;-34
2023/10/30 09:46:00;;;;;;;0.00;0.00;;;15.40;73.40;;;;;;5023942;28;20247;-34
2023/10/30 09:48:32;;;;;;;0.00;0.00;;;15.50;73.50;;;;;;5029860;28;20222;-34
2023/10/30 09:51:08;;;;;;;0.00;0.00;;;15.50;73.40;;;;;;5020693;28;20274;-34
2023/10/30 09:53:39;;;;;;;0.00;0.00;;;15.50;73.40;;;;;;5022966;28;20196;-34
2023/10/30 09:56:07;;;;;;;0.00;0.00;;;15.60;73.50;;;;;;5012116;28;20275;-33
2023/10/30 09:58:39;;;;;;;0.00;0.00;;;15.60;73.50;;;;;;5010409;28;20205;-34
2023/10/30 10:01:10;;;;;;;0.00;0.00;;;15.60;73.50;;;;;;5010669;28;20296;-34
2023/10/30 10:03:39;;;;;;;0.00;0.00;;;15.70;73.60;;;;;;5011379;28;20257;-34
2023/10/30 10:06:10;;;;;;;0.00;0.00;;;15.70;74.40;;;;;;5029559;28;20291;-33
2023/10/30 10:08:38;;;;;;;0.00;0.00;;;15.70;73.60;;;;;;5043158;28;20271;-34
2023/10/30 10:11:05;;;;;;;0.00;0.00;;;15.80;73.70;;;;;;5030034;28;20213;-33
2023/10/30 10:13:33;;;;;;;0.00;0.00;;;15.80;73.80;;;;;;5030106;28;20196;-34
2023/10/30 10:16:01;;;;;;;0.00;0.00;;;15.90;73.80;;;;;;5028480;28;20212;-33
2023/10/30 10:18:35;;;;;;;0.00;0.00;;;15.90;73.80;;;;;;5024748;28;20616;-34
2023/10/30 10:21:04;;;;;;;0.00;0.00;;;15.90;73.80;;;;;;5019713;28;20561;-34
2023/10/30 10:23:35;;;;;;;0.00;0.00;;;16.00;73.80;;;;;;5016221;28;20733;-34
2023/10/30 10:26:13;;;;;;;0.00;0.00;;;16.00;73.80;;;;;;5026016;28;20209;-34
2023/10/30 10:28:43;;;;;;;0.00;0.00;;;16.10;73.90;;;;;;5026222;28;20842;-33
2023/10/30 10:31:10;;;;;;;0.00;0.00;;;16.10;73.90;;;;;;5018083;28;20194;-34
2023/10/30 10:33:37;;;;;;;0.00;0.00;;;16.10;73.90;;;;;;5021391;28;20312;-34
2023/10/30 10:36:13;;;;;;;0.00;0.00;;;16.20;73.90;;;;;;5009576;28;20207;-34
2023/10/30 10:38:57;;;;;;;0.00;0.00;;;16.20;73.90;;;;;;5012853;28;20235;-33
2023/10/30 10:41:30;;;;;;;0.00;0.00;;;16.20;73.90;;;;;;5011944;28;20317;-34
2023/10/30 10:44:00;;;;;;;0.00;0.00;;;16.30;74.00;;;;;;5020319;28;20201;-33
2023/10/30 10:46:27;;;;;;;0.00;0.00;;;16.30;74.00;;;;;;5008842;28;20678;-33
2023/10/30 10:48:55;;;;;;;0.00;0.00;;;16.40;74.00;;;;;;5024207;28;20279;-34
2023/10/30 10:51:37;;;;;;;0.00;0.00;;;16.40;74.00;;;;;;5025774;28;20217;-34
2023/10/30 10:54:10;;;;;;;0.00;0.00;;;16.40;74.00;;;;;;5020913;28;20224;-33
2023/10/30 10:56:39;;;;;;;0.00;0.00;;;16.40;74.00;;;;;;5015930;28;20245;-34
2023/10/30 10:59:11;;;;;;;0.00;0.00;;;16.40;74.00;;;;;;5011735;28;20316;-34
2023/10/30 11:01:44;;;;;;;0.00;0.00;;;16.50;74.00;;;;;;5013398;28;20255;-34
2023/10/30 11:04:14;;;;;;;0.00;0.00;;;16.50;74.00;;;;;;5023706;28;20213;-33
2023/10/30 11:06:48;;;;;;;0.00;0.00;;;16.60;74.10;;;;;;5007934;28;20849;-33
2023/10/30 11:09:32;;;;;;;0.00;0.00;;;16.60;74.10;;;;;;5016644;28;20227;-34
2023/10/30 11:12:22;;;;;;;0.00;0.00;;;16.60;74.00;;;;;;5023808;28;20207;-34
2023/10/30 11:15:05;;;;;;;0.00;0.00;;;16.60;74.00;;;;;;5022235;28;20204;-34
2023/10/30 11:17:39;;;;;;;0.00;0.00;;;16.60;74.00;;;;;;5012439;28;20279;-33
2023/10/30 11:20:10;;;;;;;0.00;0.00;;;16.60;74.00;;;;;;5013997;28;20196;-33
2023/10/30 11:22:41;;;;;;;0.00;0.00;;;16.60;74.00;;;;;;5005762;28;20819;-34
2023/10/30 11:25:38;;;;;;;0.00;0.00;;;16.60;74.00;;;;;;5011637;28;20321;-34
2023/10/30 11:28:07;;;;;;;0.00;0.00;;;16.60;74.00;;;;;;5011068;28;20264;-33
2023/10/30 11:30:55;;;;;;;0.00;0.00;;;16.70;74.10;;;;;;5022376;28;20197;-34
2023/10/30 11:33:27;;;;;;;0.00;0.00;;;16.70;74.10;;;;;;5026484;28;20311;-34
2023/10/30 11:36:17;;;;;;;0.00;0.00;;;16.70;74.90;;;;;;5035599;28;20289;-34
2023/10/30 11:39:02;;;;;;;0.00;0.00;;;16.70;74.10;;;;;;5024602;28;20262;-34
2023/10/30 11:41:29;;;;;;;0.00;0.00;;;16.70;74.10;;;;;;5021248;28;20219;-34
2023/10/30 11:44:12;;;;;;;0.00;0.00;;;16.70;74.00;;;;;;5023651;28;20762;-34
2023/10/30 11:46:44;;;;;;;0.00;0.00;;;16.70;74.10;;;;;;5022267;28;20274;-34
2023/10/30 11:49:18;;;;;;;0.00;0.00;;;16.70;74.10;;;;;;5025246;28;20220;-34
2023/10/30 11:51:49;;;;;;;0.00;0.00;;;16.70;74.00;;;;;;5024480;28;20225;-34
2023/10/30 11:54:31;;;;;;;0.00;0.00;;;16.70;74.10;;;;;;5026608;28;20201;-34
2023/10/30 11:57:00;;;;;;;0.00;0.00;;;16.70;74.10;;;;;;5026366;28;20189;-34
2023/10/30 11:59:30;;;;;;;0.00;0.00;;;16.70;74.10;;;;;;5024935;28;20213;-34
2023/10/30 12:02:01;;;;;;;0.00;0.00;;;16.70;74.10;;;;;;5020847;28;20236;-32
2023/10/30 12:04:28;;;;;;;0.00;0.00;;;16.70;74.00;;;;;;5025721;28;20201;-32
2023/10/30 12:06:57;;;;;;;0.00;0.00;;;16.70;74.00;;;;;;5006198;28;20225;-32
2023/10/30 12:09:29;;;;;;;0.00;0.00;;;16.80;74.10;;;;;;5004610;28;20256;-31
2023/10/30 12:11:56;;;;;;;0.00;0.00;;;16.80;74.20;;;;;;5011439;28;20695;-31
2023/10/30 12:14:29;;;;;;;0.00;0.00;;;16.80;74.10;;;;;;5017536;28;20255;-32
2023/10/30 12:17:02;;;;;;;0.00;0.00;;;16.80;74.10;;;;;;5019508;28;20213;-34
2023/10/30 12:19:32;;;;;;;0.00;0.00;;;16.80;74.10;;;;;;5005702;28;20329;-34
2023/10/30 12:21:59;;;;;;;0.00;0.00;;;16.80;74.10;;;;;;5010599;28;20311;-34
2023/10/30 12:24:31;;;;;;;0.00;0.00;;;16.80;74.10;;;;;;5014291;28;20209;-34
2023/10/30 12:26:59;;;;;;;0.00;0.00;;;16.80;74.10;;;;;;5021379;28;20225;-34
2023/10/30 12:29:28;;;;;;;0.00;0.00;;;16.80;74.10;;;;;;5032461;28;20288;-34
2023/10/30 12:32:05;;;;;;;0.00;0.00;;;16.80;74.10;;;;;;5041614;28;20403;-34
2023/10/30 12:34:38;;;;;;;0.00;0.00;;;16.80;74.10;;;;;;5028396;28;20215;-34
2023/10/30 12:37:21;;;;;;;0.00;0.00;;;16.80;74.00;;;;;;5038644;28;20214;-34
2023/10/30 12:40:04;;;;;;;0.00;0.00;;;16.80;74.10;;;;;;5023725;28;20192;-34
2023/10/30 12:42:38;;;;;;;0.00;0.00;;;16.70;74.00;;;;;;5044033;28;20211;-34
2023/10/30 12:45:13;;;;;;;0.00;0.00;;;16.70;74.00;;;;;;5037143;28;20224;-34
2023/10/30 12:47:47;;;;;;;0.00;0.00;;;16.70;74.10;;;;;;5024915;28;20275;-32
2023/10/30 12:50:16;;;;;;;0.00;0.00;;;16.70;74.10;;;;;;5020075;28;20609;-31
2023/10/30 12:52:48;;;;;;;0.00;0.00;;;16.70;74.10;;;;;;5033373;28;20610;-32
2023/10/30 12:55:15;;;;;;;0.00;0.00;;;16.70;74.20;;;;;;5011251;28;20694;-32
2023/10/30 12:57:45;;;;;;;0.00;0.00;;;16.70;74.20;;;;;;5007643;28;21043;-32
2023/10/30 13:00:15;;;;;;;0.00;0.00;;;16.70;74.20;;;;;;5005972;28;20676;-34
2023/10/30 13:02:47;;;;;;;0.00;0.00;;;16.70;74.10;;;;;;5016690;28;20295;-34